createdAt,value
2023-03-12T00:00:02.000Z,24.7
2023-03-12T00:01:18.436Z,24.6
2023-03-12T00:02:34.000Z,24.7
2023-03-12T00:03:50.000Z,25.4
2023-03-12T00:05:06.000Z,24.9
2023-03-12T00:06:22.000Z,24.8
2023-03-12T00:07:39.170Z,24.6
2023-03-12T00:08:54.000Z,24.7
2023-03-12T00:10:10.000Z,24.8
2023-03-12T00:11:26.000Z,24.5
2023-03-12T00:12:42.000Z,24.4
2023-03-12T00:13:58.000Z,24.4
2023-03-12T00:15:14.000Z,24.4
2023-03-12T00:16:30.000Z,24.5
2023-03-12T00:17:46.000Z,24.6
2023-03-12T00:19:01.554Z,24.3
2023-03-12T00:20:16.000Z,24.2
2023-03-12T00:21:31.000Z,24.4
2023-03-12T00:22:47.000Z,24.5
2023-03-12T00:24:03.000Z,24.6
2023-03-12T00:25:20.000Z,24.6
2023-03-12T00:26:36.000Z,24.9
2023-03-12T00:27:52.000Z,24.9
2023-03-12T00:29:08.773Z,25.1
2023-03-12T00:30:24.000Z,25.1
2023-03-12T00:31:40.000Z,25.1
2023-03-12T00:32:56.000Z,25.2
2023-03-12T00:34:13.000Z,25.3
2023-03-12T00:35:29.000Z,25.3
2023-03-12T00:36:45.653Z,25.6
2023-03-12T00:38:00.000Z,25.9
2023-03-12T00:39:16.000Z,25.9
2023-03-12T00:40:32.000Z,25.9
2023-03-12T00:41:49.000Z,25.9
2023-03-12T00:43:05.000Z,25.9
2023-03-12T00:44:21.558Z,25.7
2023-03-12T00:45:37.000Z,26.6
2023-03-12T00:46:52.000Z,26.7
2023-03-12T00:48:07.000Z,27.1
2023-03-12T00:49:23.000Z,26.8
2023-03-12T00:50:40.000Z,26.9
2023-03-12T00:51:56.487Z,27.2
2023-03-12T00:53:12.626Z,27.3
2023-03-12T00:54:28.000Z,27.4
2023-03-12T00:55:44.000Z,28
2023-03-12T00:57:00.000Z,27.4
2023-03-12T00:58:16.000Z,27.8
2023-03-12T00:59:33.000Z,28.1
2023-03-12T01:00:49.000Z,28
2023-03-12T01:02:05.655Z,28.7
2023-03-12T01:03:21.000Z,28.6
2023-03-12T01:04:36.000Z,29.1
2023-03-12T01:05:53.114Z,29.6
2023-03-12T01:07:09.000Z,29.9
2023-03-12T01:08:25.000Z,31.4
2023-03-12T01:09:41.000Z,31.4
2023-03-12T01:10:57.000Z,31.9
2023-03-12T01:12:13.855Z,32.1
2023-03-12T01:13:28.000Z,32.2
2023-03-12T01:14:43.000Z,32.6
2023-03-12T01:15:59.000Z,33
2023-03-12T01:17:14.000Z,33.7
2023-03-12T01:18:30.000Z,33.5
2023-03-12T01:19:46.000Z,33.9
2023-03-12T01:21:02.000Z,34.8
2023-03-12T01:22:19.120Z,35.5
2023-03-12T01:23:35.000Z,36.1
2023-03-12T01:24:51.000Z,36.6
2023-03-12T01:26:07.000Z,37.9
2023-03-12T01:27:23.000Z,38.3
2023-03-12T01:28:39.000Z,39.2
2023-03-12T01:29:55.000Z,39.6
2023-03-12T01:31:11.000Z,40.1
2023-03-12T01:32:28.000Z,40.8
2023-03-12T01:33:43.000Z,41.5
2023-03-12T01:34:59.605Z,42.6
2023-03-12T01:36:15.000Z,43.6
2023-03-12T01:37:31.000Z,44.6
2023-03-12T01:38:47.000Z,45.3
2023-03-12T01:40:03.000Z,46.3
2023-03-12T01:41:20.000Z,46.8
2023-03-12T01:42:35.000Z,47.5
2023-03-12T01:43:50.000Z,49.6
2023-03-12T01:45:05.000Z,50.9
2023-03-12T01:46:20.000Z,51.6
2023-03-12T01:47:36.000Z,53.1
2023-03-12T01:48:53.000Z,53
2023-03-12T01:50:09.000Z,53.6
2023-03-12T01:51:25.000Z,54.4
2023-03-12T01:52:41.000Z,55.1
2023-03-12T01:53:57.000Z,55.6
2023-03-12T01:55:13.000Z,56.4
2023-03-12T01:56:29.000Z,56.4
2023-03-12T01:57:46.000Z,56.8
2023-03-12T01:59:02.000Z,58.4
2023-03-12T02:00:18.000Z,58.1
2023-03-12T02:01:34.000Z,59.4
2023-03-12T02:04:05.000Z,60.5
2023-03-12T02:05:22.000Z,60.8
2023-03-12T02:06:38.000Z,60.6
2023-03-12T02:07:54.000Z,61
2023-03-12T02:09:10.000Z,61.3
2023-03-12T02:10:26.000Z,61.4
2023-03-12T02:11:42.000Z,61.6
2023-03-12T02:12:57.000Z,61.9
2023-03-12T02:14:13.000Z,62.1
2023-03-12T02:15:29.000Z,61.9
2023-03-12T02:16:44.000Z,61.8
2023-03-12T02:17:59.000Z,61.8
2023-03-12T02:19:15.000Z,61.2
2023-03-12T02:20:31.000Z,61.1
2023-03-12T02:21:48.000Z,60.4
2023-03-12T02:23:04.000Z,60.1
2023-03-12T02:24:20.000Z,60
2023-03-12T02:25:36.000Z,59.8
2023-03-12T02:26:52.000Z,59.7
2023-03-12T02:28:08.000Z,59.8
2023-03-12T02:29:24.000Z,60
2023-03-12T02:30:41.000Z,60.2
2023-03-12T02:31:57.000Z,60
2023-03-12T02:33:13.000Z,59.7
2023-03-12T02:34:28.000Z,59.4
2023-03-12T02:35:44.000Z,59.4
2023-03-12T02:37:00.000Z,59.8
2023-03-12T02:38:16.000Z,59.6
2023-03-12T02:39:33.000Z,58.9
2023-03-12T02:40:49.000Z,57.5
2023-03-12T02:42:05.624Z,56.7
2023-03-12T02:43:21.000Z,56.1
2023-03-12T02:44:37.000Z,55.8
2023-03-12T02:45:52.000Z,55.4
2023-03-12T02:47:08.000Z,55.5
2023-03-12T02:48:23.000Z,56
2023-03-12T02:49:38.000Z,56.5
2023-03-12T02:50:54.000Z,57.2
2023-03-12T02:52:10.000Z,56.8
2023-03-12T02:53:26.000Z,56.7
2023-03-12T02:54:42.000Z,55.8
2023-03-12T02:55:59.000Z,55.4
2023-03-12T02:57:15.000Z,54.9
2023-03-12T02:58:31.000Z,54.6
2023-03-12T02:59:47.775Z,54.1
2023-03-12T03:01:03.000Z,54.1
2023-03-12T03:02:19.000Z,54.3
2023-03-12T03:03:35.000Z,54
2023-03-12T03:04:52.000Z,53.7
2023-03-12T03:06:07.000Z,53.5
2023-03-12T03:07:23.000Z,53.3
2023-03-12T03:08:39.000Z,52.8
2023-03-12T03:09:55.968Z,53.1
2023-03-12T03:11:11.000Z,53.5
2023-03-12T03:12:28.000Z,53.7
2023-03-12T03:13:44.000Z,54.3
2023-03-12T03:14:59.000Z,54.6
2023-03-12T03:16:14.000Z,54.9
2023-03-12T03:17:29.000Z,55.1
2023-03-12T03:18:44.000Z,55.3
2023-03-12T03:20:01.260Z,55.7
2023-03-12T03:21:17.000Z,55.9
2023-03-12T03:22:33.000Z,55.9
2023-03-12T03:23:49.000Z,56.3
2023-03-12T03:25:05.000Z,56
2023-03-12T03:26:21.000Z,55.9
2023-03-12T03:27:37.000Z,55.7
2023-03-12T03:28:54.000Z,55.2
2023-03-12T03:30:10.000Z,55.1
2023-03-12T03:31:26.000Z,55.1
2023-03-12T03:32:42.000Z,55.3
2023-03-12T03:33:58.000Z,55.5
2023-03-12T03:35:13.000Z,56.1
2023-03-12T03:36:29.000Z,56.4
2023-03-12T03:37:45.000Z,56.9
2023-03-12T03:39:01.000Z,56.4
2023-03-12T03:40:17.000Z,55.9
2023-03-12T03:41:33.000Z,56.4
2023-03-12T03:42:49.000Z,55.7
2023-03-12T03:44:04.000Z,55.5
2023-03-12T03:45:20.000Z,55.3
2023-03-12T03:46:36.000Z,55
2023-03-12T03:47:51.584Z,54.8
2023-03-12T03:49:06.000Z,54.5
2023-03-12T03:50:22.000Z,54.5
2023-03-12T03:51:38.000Z,54.8
2023-03-12T03:52:55.192Z,55
2023-03-12T03:54:11.000Z,55.1
2023-03-12T03:55:27.000Z,56
2023-03-12T03:56:43.000Z,55.6
2023-03-12T03:57:59.000Z,55.9
2023-03-12T03:59:15.000Z,56.1
2023-03-12T04:00:31.000Z,56.1
2023-03-12T04:01:47.000Z,55.8
2023-03-12T04:03:04.000Z,55.6
2023-03-12T04:04:20.000Z,55.5
2023-03-12T04:05:35.000Z,55.5
2023-03-12T04:06:51.000Z,55.4
2023-03-12T04:08:07.000Z,55.1
2023-03-12T04:09:23.000Z,55
2023-03-12T04:10:40.000Z,55.1
2023-03-12T04:11:56.000Z,54.9
2023-03-12T04:13:12.000Z,54.8
2023-03-12T04:14:27.742Z,54.7
2023-03-12T04:15:42.000Z,54.9
2023-03-12T04:16:57.000Z,54.9
2023-03-12T04:18:13.000Z,54.9
2023-03-12T04:19:29.000Z,54.9
2023-03-12T04:20:45.000Z,55.1
2023-03-12T04:22:01.000Z,55
2023-03-12T04:23:17.000Z,55.1
2023-03-12T04:24:33.000Z,55.1
2023-03-12T04:25:50.131Z,54.9
2023-03-12T04:27:06.000Z,54.9
2023-03-12T04:28:22.000Z,54.8
2023-03-12T04:29:38.000Z,54.7
2023-03-12T04:30:54.000Z,54.5
2023-03-12T04:32:10.000Z,55
2023-03-12T04:33:26.000Z,54.9
2023-03-12T04:34:41.000Z,54.7
2023-03-12T04:35:58.000Z,54.5
2023-03-12T04:37:14.000Z,54.1
2023-03-12T04:38:30.000Z,53.5
2023-03-12T04:39:46.000Z,53.2
2023-03-12T04:41:02.000Z,52.6
2023-03-12T04:42:18.000Z,52.4
2023-03-12T04:43:34.000Z,52.3
2023-03-12T04:44:49.000Z,52.1
2023-03-12T04:46:05.000Z,52.3
2023-03-12T04:47:21.000Z,51.7
2023-03-12T04:48:36.000Z,51.4
2023-03-12T04:49:51.000Z,51.1
2023-03-12T04:51:07.000Z,50.6
2023-03-12T04:52:24.000Z,50.4
2023-03-12T04:53:40.000Z,50.3
2023-03-12T04:54:56.000Z,50.1
2023-03-12T04:56:12.000Z,50.1
2023-03-12T04:57:28.000Z,49.9
2023-03-12T04:58:44.000Z,50
2023-03-12T05:00:00.000Z,50
2023-03-12T05:01:17.000Z,50
2023-03-12T05:02:33.000Z,50.1
2023-03-12T05:03:49.656Z,50.4
2023-03-12T05:05:05.000Z,50.4
2023-03-12T05:06:20.000Z,50.9
2023-03-12T05:07:36.000Z,51
2023-03-12T05:08:53.000Z,51.3
2023-03-12T05:10:09.000Z,51.3
2023-03-12T05:11:25.000Z,51.4
2023-03-12T05:12:41.000Z,51.6
2023-03-12T05:13:57.000Z,51.8
2023-03-12T05:15:12.000Z,51.9
2023-03-12T05:16:27.000Z,52.3
2023-03-12T05:17:44.000Z,52.1
2023-03-12T05:19:00.484Z,52.3
2023-03-12T05:20:16.000Z,52.5
2023-03-12T05:21:32.000Z,52.6
2023-03-12T05:22:48.000Z,51.8
2023-03-12T05:24:04.000Z,51.6
2023-03-12T05:25:20.000Z,51.5
2023-03-12T05:26:37.000Z,51.4
2023-03-12T05:27:53.000Z,51.3
2023-03-12T05:29:09.667Z,51.3
2023-03-12T05:30:25.000Z,51.8
2023-03-12T05:31:41.000Z,50.3
2023-03-12T05:32:56.000Z,49.4
2023-03-12T05:34:13.000Z,48.9
2023-03-12T05:35:29.000Z,48.4
2023-03-12T05:36:45.000Z,48
2023-03-12T05:38:01.000Z,47.5
2023-03-12T05:39:17.000Z,47.5
2023-03-12T05:40:33.000Z,47.4
2023-03-12T05:41:49.184Z,47.5
2023-03-12T05:43:04.000Z,48
2023-03-12T05:44:19.000Z,47.2
2023-03-12T05:45:34.000Z,48
2023-03-12T05:46:50.000Z,47.1
2023-03-12T05:48:06.000Z,46.8
2023-03-12T05:49:21.000Z,46.2
2023-03-12T05:50:37.000Z,45.3
2023-03-12T05:51:53.000Z,44.1
2023-03-12T05:53:09.000Z,43.8
2023-03-12T05:54:25.000Z,43.7
2023-03-12T05:55:41.000Z,43.3
2023-03-12T05:56:57.000Z,43.3
2023-03-12T05:58:13.000Z,43.2
2023-03-12T05:59:30.000Z,43
2023-03-12T06:00:46.000Z,43.1
2023-03-12T06:02:02.000Z,42.8
2023-03-12T06:03:18.000Z,42.8
2023-03-12T06:04:34.000Z,42.6
2023-03-12T06:05:50.000Z,43.1
2023-03-12T06:07:06.000Z,42.8
2023-03-12T06:08:22.000Z,42.9
2023-03-12T06:09:38.000Z,43.1
2023-03-12T06:10:54.000Z,43.3
2023-03-12T06:12:10.000Z,43.4
2023-03-12T06:13:26.000Z,43.6
2023-03-12T06:14:42.000Z,44
2023-03-12T06:15:58.000Z,44.3
2023-03-12T06:17:13.000Z,44.5
2023-03-12T06:18:29.000Z,44.7
2023-03-12T06:19:44.000Z,44.9
2023-03-12T06:20:59.000Z,45.1
2023-03-12T06:22:15.000Z,45.4
2023-03-12T06:23:32.000Z,45.9
2023-03-12T06:24:48.000Z,46
2023-03-12T06:26:04.000Z,46.4
2023-03-12T06:27:20.000Z,47.4
2023-03-12T06:28:36.000Z,47.6
2023-03-12T06:29:52.000Z,47.8
2023-03-12T06:31:08.000Z,48.2
2023-03-12T06:32:25.000Z,48.2
2023-03-12T06:33:41.000Z,48.5
2023-03-12T06:34:57.581Z,48.4
2023-03-12T06:36:13.000Z,48.2
2023-03-12T06:37:28.000Z,48.1
2023-03-12T06:38:45.037Z,47.7
2023-03-12T06:40:00.000Z,47.5
2023-03-12T06:41:17.000Z,47.5
2023-03-12T06:42:33.000Z,47.4
2023-03-12T06:43:49.000Z,47.2
2023-03-12T06:45:05.773Z,47
2023-03-12T06:46:20.000Z,47
2023-03-12T06:47:35.000Z,46.8
2023-03-12T06:48:51.000Z,46.5
2023-03-12T06:50:06.000Z,46.2
2023-03-12T06:51:22.000Z,46.1
2023-03-12T06:52:38.000Z,45.8
2023-03-12T06:53:54.000Z,45.8
2023-03-12T06:55:10.000Z,45.5
2023-03-12T06:56:26.000Z,45.6
2023-03-12T06:57:43.000Z,45.8
2023-03-12T06:58:59.000Z,45.8
2023-03-12T07:00:15.000Z,45.8
2023-03-12T07:01:31.000Z,45.8
2023-03-12T07:02:47.000Z,45.6
2023-03-12T07:04:03.000Z,45.2
2023-03-12T07:05:20.206Z,44.7
2023-03-12T07:06:35.000Z,44.1
2023-03-12T07:07:51.000Z,43.8
2023-03-12T07:09:07.000Z,43.3
2023-03-12T07:10:23.814Z,43.1
2023-03-12T07:11:39.000Z,42.9
2023-03-12T07:12:55.000Z,43
2023-03-12T07:14:12.000Z,42.8
2023-03-12T07:15:27.000Z,42.5
2023-03-12T07:16:42.597Z,42.2
2023-03-12T07:17:58.000Z,42.3
2023-03-12T07:19:14.000Z,41.6
2023-03-12T07:20:30.000Z,41.3
2023-03-12T07:21:46.000Z,41.1
2023-03-12T07:23:02.000Z,40.8
2023-03-12T07:24:17.000Z,40.7
2023-03-12T07:25:33.000Z,40.4
2023-03-12T07:26:49.000Z,40.3
2023-03-12T07:28:05.000Z,39.8
2023-03-12T07:29:21.000Z,39.1
2023-03-12T07:30:38.000Z,38.7
2023-03-12T07:31:54.000Z,37.9
2023-03-12T07:33:10.000Z,37.7
2023-03-12T07:34:26.000Z,37.4
2023-03-12T07:35:42.000Z,37.2
2023-03-12T07:36:58.000Z,37.3
2023-03-12T07:38:14.000Z,37
2023-03-12T07:39:31.000Z,36.9
2023-03-12T07:40:46.000Z,36.6
2023-03-12T07:42:02.000Z,36.8
2023-03-12T07:43:18.000Z,36.5
2023-03-12T07:44:34.000Z,36.6
2023-03-12T07:45:50.000Z,36.4
2023-03-12T07:47:06.000Z,36.2
2023-03-12T07:48:23.000Z,36.4
2023-03-12T07:49:38.000Z,36.5
2023-03-12T07:50:53.000Z,36.4
2023-03-12T07:52:08.000Z,36.2
2023-03-12T07:53:23.000Z,36.6
2023-03-12T07:54:39.000Z,36.4
2023-03-12T07:55:56.000Z,36.9
2023-03-12T07:57:12.000Z,37.2
2023-03-12T07:58:28.000Z,37.5
2023-03-12T08:01:00.879Z,38
2023-03-12T08:02:16.000Z,38
2023-03-12T08:03:32.000Z,38
2023-03-12T08:04:49.000Z,38.1
2023-03-12T08:06:05.000Z,38.2
2023-03-12T08:07:21.000Z,37.8
2023-03-12T08:08:37.755Z,37.5
2023-03-12T08:09:52.000Z,37.5
2023-03-12T08:11:09.062Z,37.1
2023-03-12T08:12:24.000Z,37
2023-03-12T08:13:41.000Z,36.8
2023-03-12T08:14:57.000Z,36.8
2023-03-12T08:16:13.000Z,36.5
2023-03-12T08:17:29.000Z,36.5
2023-03-12T08:18:45.000Z,36.2
2023-03-12T08:20:00.000Z,35.5
2023-03-12T08:21:16.272Z,35.4
2023-03-12T08:22:31.000Z,35
2023-03-12T08:23:46.000Z,35
2023-03-12T08:25:02.000Z,35
2023-03-12T08:26:18.000Z,35
2023-03-12T08:27:34.000Z,34.9
2023-03-12T08:28:50.000Z,35.5
2023-03-12T08:30:07.000Z,36.4
2023-03-12T08:31:23.000Z,36.7
2023-03-12T08:32:39.000Z,36.6
2023-03-12T08:33:55.000Z,36.4
2023-03-12T08:35:11.000Z,36.1
2023-03-12T08:36:27.000Z,36.5
2023-03-12T08:37:43.000Z,35.7
2023-03-12T08:39:00.000Z,35.8
2023-03-12T08:40:15.000Z,36.7
2023-03-12T08:41:31.000Z,36.6
2023-03-12T08:42:47.000Z,36.2
2023-03-12T08:44:03.000Z,35.7
2023-03-12T08:45:19.000Z,34.2
2023-03-12T08:46:36.000Z,33.8
2023-03-12T08:47:52.000Z,32.8
2023-03-12T08:49:07.000Z,32.1
2023-03-12T08:50:22.000Z,31.5
2023-03-12T08:51:37.000Z,31.4
2023-03-12T08:52:52.000Z,31.3
2023-03-12T08:54:09.220Z,31.2
2023-03-12T08:55:25.000Z,31
2023-03-12T08:56:41.000Z,30.3
2023-03-12T08:57:57.000Z,29.8
2023-03-12T08:59:13.000Z,29.3
2023-03-12T09:00:29.952Z,29.4
2023-03-12T09:01:45.000Z,29.6
2023-03-12T09:03:02.000Z,29.3
2023-03-12T09:04:18.000Z,28.4
2023-03-12T09:05:34.000Z,29.3
2023-03-12T09:06:50.000Z,29.7
2023-03-12T09:08:06.000Z,29.3
2023-03-12T09:09:21.000Z,29.3
2023-03-12T09:10:37.000Z,29.5
2023-03-12T09:11:54.000Z,30.1
2023-03-12T09:13:10.000Z,30.1
2023-03-12T09:14:26.000Z,29.8
2023-03-12T09:15:42.000Z,29.9
2023-03-12T09:16:58.000Z,29.6
2023-03-12T09:18:13.000Z,30
2023-03-12T09:19:28.000Z,30.2
2023-03-12T09:20:44.000Z,30
2023-03-12T09:21:59.000Z,30.9
2023-03-12T09:23:15.000Z,30
2023-03-12T09:24:31.000Z,29.2
2023-03-12T09:25:47.000Z,28.2
2023-03-12T09:27:03.000Z,27.7
2023-03-12T09:28:20.000Z,27.3
2023-03-12T09:29:36.000Z,27.1
2023-03-12T09:30:52.000Z,28.2
2023-03-12T09:32:08.000Z,28.1
2023-03-12T09:33:24.000Z,27.1
2023-03-12T09:34:40.000Z,28.5
2023-03-12T09:35:57.115Z,30.6
2023-03-12T09:37:13.000Z,31
2023-03-12T09:38:28.000Z,32.8
2023-03-12T09:39:44.000Z,33.9
2023-03-12T09:41:00.000Z,33.8
2023-03-12T09:42:16.000Z,34.4
2023-03-12T09:43:32.000Z,35.5
2023-03-12T09:44:49.150Z,35.6
2023-03-12T09:46:05.000Z,39.6
2023-03-12T09:47:20.000Z,39.8
2023-03-12T09:48:35.000Z,40.3
2023-03-12T09:49:51.000Z,40
2023-03-12T09:51:07.921Z,38.5
2023-03-12T09:52:22.000Z,38.8
2023-03-12T09:53:38.000Z,40.6
2023-03-12T09:54:54.000Z,42.2
2023-03-12T09:56:10.000Z,41.7
2023-03-12T09:57:26.690Z,45.3
2023-03-12T09:58:42.000Z,46.8
2023-03-12T09:59:58.000Z,48.7
2023-03-12T10:01:14.000Z,50.3
2023-03-12T10:02:31.000Z,51.6
2023-03-12T10:03:47.000Z,49.8
2023-03-12T10:05:03.000Z,52
2023-03-12T10:06:19.000Z,51.6
2023-03-12T10:07:35.000Z,53.3
2023-03-12T10:08:51.000Z,54.5
2023-03-12T10:10:06.000Z,56.3
2023-03-12T10:11:23.310Z,58.5
2023-03-12T10:12:39.000Z,57.5
2023-03-12T10:13:55.000Z,56.5
2023-03-12T10:15:11.000Z,56.8
2023-03-12T10:16:27.000Z,57.7
2023-03-12T10:17:43.000Z,60.2
2023-03-12T10:18:58.000Z,58.7
2023-03-12T10:20:14.000Z,61.2
2023-03-12T10:21:30.000Z,59.6
2023-03-12T10:22:46.000Z,58.8
2023-03-12T10:24:02.000Z,62.7
2023-03-12T10:25:18.000Z,61.4
2023-03-12T10:26:34.000Z,60.6
2023-03-12T10:27:51.000Z,59.2
2023-03-12T10:29:07.000Z,60.6
2023-03-12T10:30:23.000Z,65.5
2023-03-12T10:31:39.000Z,67.6
2023-03-12T10:32:55.000Z,69
2023-03-12T10:34:11.000Z,68.6
2023-03-12T10:35:27.000Z,67.2
2023-03-12T10:36:43.000Z,68
2023-03-12T10:37:59.000Z,70.3
2023-03-12T10:39:15.000Z,70.5
2023-03-12T10:40:31.000Z,70.1
2023-03-12T10:41:47.000Z,68.8
2023-03-12T10:43:03.000Z,71.3
2023-03-12T10:44:19.000Z,71.1
2023-03-12T10:45:35.000Z,69.7
2023-03-12T10:46:50.000Z,68.5
2023-03-12T10:48:05.000Z,70
2023-03-12T10:49:20.000Z,70.3
2023-03-12T10:50:36.000Z,69.7
2023-03-12T10:51:52.000Z,69.8
2023-03-12T10:53:08.276Z,71.7
2023-03-12T10:54:23.000Z,72
2023-03-12T10:55:39.000Z,73.8
2023-03-12T10:56:55.000Z,75
2023-03-12T10:58:11.000Z,74.6
2023-03-12T10:59:27.000Z,76
2023-03-12T11:00:43.000Z,75.4
2023-03-12T11:02:00.322Z,74.7
2023-03-12T11:03:16.000Z,73.7
2023-03-12T11:04:32.000Z,74.2
2023-03-12T11:05:48.000Z,76.7
2023-03-12T11:07:04.000Z,77.6
2023-03-12T11:08:20.000Z,78.6
2023-03-12T11:09:36.000Z,78.8
2023-03-12T11:10:52.000Z,79.8
2023-03-12T11:12:08.000Z,81
2023-03-12T11:13:24.000Z,81.9
2023-03-12T11:14:40.000Z,82.7
2023-03-12T11:15:56.000Z,80.5
2023-03-12T11:18:28.000Z,81.3
2023-03-12T11:19:45.000Z,83
2023-03-12T11:21:00.000Z,81.2
2023-03-12T11:22:15.705Z,80.4
2023-03-12T11:23:30.000Z,80.4
2023-03-12T11:24:45.000Z,80.9
2023-03-12T11:26:01.000Z,82.3
2023-03-12T11:27:18.000Z,81.6
2023-03-12T11:28:34.000Z,81.4
2023-03-12T11:29:50.614Z,80.8
2023-03-12T11:31:06.000Z,80.4
2023-03-12T11:32:22.000Z,80.6
2023-03-12T11:33:38.000Z,79.8
2023-03-12T11:34:54.000Z,81.1
2023-03-12T11:36:11.346Z,82.7
2023-03-12T11:37:27.000Z,81.7
2023-03-12T11:38:43.000Z,80.9
2023-03-12T11:39:59.000Z,82
2023-03-12T11:41:14.945Z,81.6
2023-03-12T11:42:30.000Z,82.9
2023-03-12T11:43:47.000Z,85.8
2023-03-12T11:45:03.000Z,82.3
2023-03-12T11:46:19.000Z,83
2023-03-12T11:48:51.000Z,85.5
2023-03-12T11:50:07.000Z,85.1
2023-03-12T11:51:22.000Z,82.9
2023-03-12T11:52:38.000Z,83.4
2023-03-12T11:56:25.000Z,85.5
2023-03-12T11:57:40.000Z,85.1
2023-03-12T11:58:55.000Z,83.3
2023-03-12T12:00:12.000Z,86.5
2023-03-12T12:01:28.000Z,88.3
2023-03-12T12:02:44.000Z,88.9
2023-03-12T12:04:00.000Z,90
2023-03-12T12:05:16.000Z,88.1
2023-03-12T12:06:31.000Z,86.3
2023-03-12T12:07:47.000Z,88
2023-03-12T12:09:04.284Z,89.2
2023-03-12T12:10:20.000Z,89.4
2023-03-12T12:11:36.571Z,89.2
2023-03-12T12:12:52.719Z,89.5
2023-03-12T12:14:08.000Z,90.8
2023-03-12T12:15:24.000Z,92.8
2023-03-12T12:16:40.000Z,89.1
2023-03-12T12:17:57.000Z,96.9
2023-03-12T12:19:13.000Z,96.6
2023-03-12T12:20:29.000Z,98.1
2023-03-12T12:21:45.000Z,98.5
2023-03-12T12:23:00.000Z,98.2
2023-03-12T12:24:15.000Z,100
2023-03-12T12:25:31.000Z,100
2023-03-12T12:26:47.000Z,100
2023-03-12T12:28:02.000Z,100
2023-03-12T12:29:18.694Z,100
2023-03-12T12:30:34.000Z,100
2023-03-12T12:31:50.000Z,100
2023-03-12T12:33:06.000Z,100
2023-03-12T12:34:23.000Z,100
2023-03-12T12:35:39.000Z,99.6
2023-03-12T12:36:55.000Z,99.7
2023-03-12T12:38:11.000Z,99.7
2023-03-12T12:39:27.000Z,99
2023-03-12T12:40:43.000Z,99.1
2023-03-12T12:41:59.000Z,98.8
2023-03-12T12:43:16.000Z,100
2023-03-12T12:44:31.000Z,100
2023-03-12T12:45:47.000Z,100
2023-03-12T12:47:03.000Z,100
2023-03-12T12:48:19.000Z,100
2023-03-12T12:49:35.000Z,100
2023-03-12T12:50:51.000Z,100
2023-03-12T12:52:08.000Z,100
2023-03-12T12:53:23.000Z,100
2023-03-12T12:54:38.000Z,100
2023-03-12T12:55:54.000Z,100
2023-03-12T12:57:09.000Z,100
2023-03-12T12:58:25.144Z,100
2023-03-12T12:59:41.000Z,100
2023-03-12T13:00:57.000Z,100
2023-03-12T13:02:13.000Z,99.6
2023-03-12T13:03:29.000Z,100
2023-03-12T13:04:45.000Z,100
2023-03-12T13:06:01.000Z,100
2023-03-12T13:07:18.165Z,100
2023-03-12T13:08:34.000Z,100
2023-03-12T13:09:50.000Z,100
2023-03-12T13:11:06.000Z,100
2023-03-12T13:12:22.000Z,100
2023-03-12T13:13:38.000Z,100
2023-03-12T13:14:53.000Z,100
2023-03-12T13:16:09.000Z,100
2023-03-12T13:17:26.342Z,100
2023-03-12T13:18:42.000Z,100
2023-03-12T13:19:58.000Z,100
2023-03-12T13:21:14.000Z,100
2023-03-12T13:22:30.000Z,100
2023-03-12T13:23:45.000Z,100
2023-03-12T13:25:01.000Z,100
2023-03-12T13:26:16.000Z,100
2023-03-12T13:27:31.000Z,100
2023-03-12T13:28:47.000Z,100
2023-03-12T13:30:03.000Z,100
2023-03-12T13:31:19.000Z,100
2023-03-12T13:32:35.000Z,100
2023-03-12T13:33:52.000Z,100
2023-03-12T13:35:08.000Z,100
2023-03-12T13:36:24.000Z,100
2023-03-12T13:37:40.000Z,100
2023-03-12T13:38:56.000Z,100
2023-03-12T13:40:12.000Z,100
2023-03-12T13:41:28.000Z,100
2023-03-12T13:42:45.000Z,100
2023-03-12T13:44:00.000Z,100
2023-03-12T13:45:16.000Z,100
2023-03-12T13:46:32.000Z,100
2023-03-12T13:47:48.000Z,100
2023-03-12T13:49:04.000Z,100
2023-03-12T13:50:21.000Z,100
2023-03-12T13:51:37.000Z,99.8
2023-03-12T13:52:52.000Z,100
2023-03-12T13:54:07.000Z,100
2023-03-12T13:55:23.000Z,100
2023-03-12T13:56:39.000Z,100
2023-03-12T13:57:55.000Z,100
2023-03-12T13:59:12.000Z,97.9
2023-03-12T14:00:28.000Z,97.9
2023-03-12T14:01:44.000Z,97.9
2023-03-12T14:03:00.000Z,97.1
2023-03-12T14:04:16.000Z,97.6
2023-03-12T14:05:32.000Z,97.5
2023-03-12T14:06:48.000Z,98.5
2023-03-12T14:08:05.000Z,97.6
2023-03-12T14:09:21.000Z,94.6
2023-03-12T14:10:36.000Z,93.6
2023-03-12T14:11:52.000Z,94.3
2023-03-12T14:13:08.000Z,93.2
2023-03-12T14:14:24.000Z,91.6
2023-03-12T14:15:40.000Z,89.8
2023-03-12T14:16:57.000Z,89.7
2023-03-12T14:18:13.000Z,87.7
2023-03-12T14:19:28.000Z,89.3
2023-03-12T14:20:43.000Z,89.6
2023-03-12T14:21:58.000Z,88.5
2023-03-12T14:23:14.156Z,85.7
2023-03-12T14:24:30.000Z,86.3
2023-03-12T14:25:45.000Z,83.7
2023-03-12T14:27:00.000Z,81.3
2023-03-12T14:28:16.000Z,81
2023-03-12T14:29:32.000Z,77.2
2023-03-12T14:30:48.000Z,73.6
2023-03-12T14:32:04.000Z,72.2
2023-03-12T14:33:21.000Z,72.7
2023-03-12T14:34:37.000Z,72.6
2023-03-12T14:35:53.000Z,69.8
2023-03-12T14:38:25.000Z,67.6
2023-03-12T14:39:41.000Z,66.3
2023-03-12T14:40:58.234Z,65
2023-03-12T14:42:14.000Z,64.1
2023-03-12T14:43:29.000Z,62.5
2023-03-12T14:44:45.000Z,62.2
2023-03-12T14:46:01.000Z,60.7
2023-03-12T14:47:17.000Z,61
2023-03-12T14:48:33.000Z,58.9
2023-03-12T14:49:50.000Z,56
2023-03-12T14:51:06.000Z,54
2023-03-12T14:52:22.000Z,53.5
2023-03-12T14:53:37.000Z,52.6
2023-03-12T14:54:52.000Z,50.8
2023-03-12T14:56:08.070Z,49.7
2023-03-12T14:57:23.000Z,48
2023-03-12T14:58:39.000Z,47.7
2023-03-12T14:59:55.000Z,47.4
2023-03-12T15:01:11.673Z,47
2023-03-12T15:02:27.811Z,44.4
2023-03-12T15:03:43.000Z,43.8
2023-03-12T15:04:59.000Z,42.8
2023-03-12T15:06:16.000Z,41.5
2023-03-12T15:07:32.000Z,40.8
2023-03-12T15:08:48.000Z,39.2
2023-03-12T15:10:04.000Z,39.1
2023-03-12T15:11:20.000Z,38.6
2023-03-12T15:12:36.000Z,37.6
2023-03-12T15:13:51.000Z,36.4
2023-03-12T15:15:08.000Z,36
2023-03-12T15:16:24.434Z,35.4
2023-03-12T15:17:40.000Z,34.5
2023-03-12T15:18:56.000Z,35.7
2023-03-12T15:20:12.000Z,34.5
2023-03-12T15:21:28.000Z,34
2023-03-12T15:22:43.000Z,33.2
2023-03-12T15:23:59.000Z,32.5
2023-03-12T15:25:14.000Z,31.5
2023-03-12T15:26:29.000Z,31.3
2023-03-12T15:27:45.000Z,30.5
2023-03-12T15:29:01.000Z,29.9
2023-03-12T15:30:17.000Z,29.4
2023-03-12T15:31:34.000Z,28.6
2023-03-12T15:32:50.000Z,28.6
2023-03-12T15:34:06.000Z,28.2
2023-03-12T15:35:22.000Z,28.1
2023-03-12T15:36:38.000Z,27.9
2023-03-12T15:37:54.000Z,27.3
2023-03-12T15:39:10.000Z,26.6
2023-03-12T15:40:27.000Z,26.1
2023-03-12T15:41:43.000Z,25.9
2023-03-12T15:42:58.000Z,25
2023-03-12T15:44:14.000Z,25.2
2023-03-12T15:45:30.000Z,25
2023-03-12T15:46:46.000Z,24.7
2023-03-12T15:48:02.000Z,24.8
2023-03-12T15:49:19.000Z,25.4
2023-03-12T15:50:35.000Z,26
2023-03-12T15:51:50.000Z,26.3
2023-03-12T15:53:05.000Z,26.1
2023-03-12T15:54:21.000Z,25.8
2023-03-12T15:55:37.000Z,25.6
2023-03-12T15:56:53.000Z,25.3
2023-03-12T15:58:08.000Z,25.1
2023-03-12T15:59:24.000Z,25
2023-03-12T16:00:40.000Z,24.5
2023-03-12T16:01:56.000Z,24
2023-03-12T16:03:12.000Z,23.7
2023-03-12T16:04:29.162Z,23.5
2023-03-12T16:05:45.000Z,22.9
2023-03-12T16:07:01.000Z,23
2023-03-12T16:08:17.000Z,22.9
2023-03-12T16:09:33.000Z,22.7
2023-03-12T16:10:49.000Z,22.4
2023-03-12T16:12:05.000Z,22.1
2023-03-12T16:13:21.000Z,22
2023-03-12T16:14:37.000Z,21.9
2023-03-12T16:15:53.000Z,21.4
2023-03-12T16:17:09.000Z,21.3
2023-03-12T16:18:25.000Z,21
2023-03-12T16:19:41.000Z,20.3
2023-03-12T16:20:56.000Z,20
2023-03-12T16:22:13.000Z,19.8
2023-03-12T16:23:28.000Z,19.7
2023-03-12T16:24:43.000Z,19.7
2023-03-12T16:25:59.000Z,19.3
2023-03-12T16:27:15.000Z,19.1
2023-03-12T16:28:31.000Z,18.9
2023-03-12T16:29:47.000Z,18.7
2023-03-12T16:31:04.000Z,18.4
2023-03-12T16:32:20.000Z,18.1
2023-03-12T16:33:36.000Z,17.9
2023-03-12T16:34:52.000Z,17.9
2023-03-12T16:36:08.000Z,17.9
2023-03-12T16:37:24.000Z,17.7
2023-03-12T16:38:40.000Z,17.6
2023-03-12T16:39:57.000Z,17.2
2023-03-12T16:41:12.000Z,17.1
2023-03-12T16:42:28.000Z,16.9
2023-03-12T16:43:44.000Z,16.9
2023-03-12T16:45:00.000Z,16.7
2023-03-12T16:46:16.000Z,16.7
2023-03-12T16:47:32.000Z,16.5
2023-03-12T16:48:49.000Z,16.4
2023-03-12T16:50:04.000Z,16.3
2023-03-12T16:51:19.000Z,16.2
2023-03-12T16:52:35.000Z,16.1
2023-03-12T16:53:51.000Z,15.9
2023-03-12T16:55:07.000Z,15.8
2023-03-12T16:56:24.000Z,15.7
2023-03-12T16:57:40.000Z,15.6
2023-03-12T16:58:56.000Z,15.6
2023-03-12T17:00:12.000Z,15.5
2023-03-12T17:01:28.000Z,15.4
2023-03-12T17:02:44.000Z,15.3
2023-03-12T17:04:00.000Z,15.3
2023-03-12T17:05:17.000Z,15.2
2023-03-12T17:06:33.000Z,15.1
2023-03-12T17:07:48.000Z,15.2